Aérodrome :







RETROUVEZ-NOUS SUR...

 
LOGIN :

S'inscrire | Disclaimer

   EN    FR    IT 

 









Légende :    VFR   VFR Marginal   IFR   IFR Intensif   IFR Très Intensif
Visi : 
Plafond : 
>= 8 km
>= 3000ft
5 à 8 km
1000 à 3000 ft
1500m à 5 km
500 à 1000 ft
800 à 1500m
200 à 500 ft
< 800m
< 200 ft
Symboles :   Orages  Brouillard  Fortes neiges  Fortes précipitations  Vent > 20 kt






- Altitude de l'aérodrome : 199 ft
- Code IATA : YRQ


CYRQ - Trois-Rivières

DERNIER METAR :
  • 250500Z AUTO 06010KT 9SM FEW120 BKN150 OVC180 M04/M07 A3034 RMK SLP279

METARs EXPIRÉS :
  • 250400Z AUTO 05011KT 9SM BKN160 OVC180 M05/M07 A3035 RMK SLP282
  • 250300Z AUTO 05009KT 9SM FEW090 M05/M07 A3036 RMK SLP286

TAF TAF CYRQ
Valide du 25 à 02h jusqu'au 25 à 14h UTC


250144Z 2502/2514 05010KT P6SM FEW100 SCT170 RMK FCST BASED ON AUTO OBS. NXT FCST BY 250800Z



MET'MAP, la Météo Aéronautique d'un coup d'oeil ! - Copyright ORBIFLY Décembre 2007 - Disclaimer

ORBIFLY MET'MAP TEAM :

Programmation & Développement : Alexandra Zaïnal
Sur une idée originale de : Baudouin d'Aumeries
Assistance à la programmation : Marc-Olivier Méhu
Soutien technique & logistique : Manuel Goepfert

Contact : metmap@orbifly.com




SOURCES & CREDITS :

   NOAA